Terminal Aerodrome Forecast
Issued by NWS

Home | Current Version | Previous Version | Text Only | Print | Product List | Glossary On
Versions: 1 2 3 4 5 6 7 8 9 10 11 12 13 14 15 16 17 18 19 20 21 22
000
FTUS43 KFGF 042324
TAFDVL
TAF
KDVL 042324Z 0500/0524 08007KT P6SM BKN050
      TEMPO 0504/0506 BKN015
     FM050600 04010KT P6SM BKN015
      TEMPO 0508/0512 BKN006
     FM051600 05012KT P6SM BKN025
      AMD LTD TO CLD VIS AND WIND=

USA.gov is the U.S. government's official web portal to all federal, state and local government web resources and services.